Time;durP1;ratioP1;P1;durP2;ratioP2;P2;SDS_P1;SDS_P2;PMS_P1;PMS_P2;Temp;Humidity;BMP_temperature;BMP_pressure;BME280_temperature;BME280_humidity;BME280_pressure;Samples;Min_cycle;Max_cycle;Signal;HPM_P1;HPM_P2
2022/05/07 00:00:39;;;;;;;14.70;9.60;;;14.80;85.20;;;;;;4974498;28;20672;-72
2022/05/07 00:03:08;;;;;;;15.10;9.23;;;14.80;85.50;;;;;;4972464;28;20630;-72
2022/05/07 00:05:35;;;;;;;12.87;10.17;;;14.80;85.40;;;;;;4974881;28;20209;-72
2022/05/07 00:08:03;;;;;;;12.47;9.00;;;14.80;85.70;;;;;;4986357;28;20219;-71
2022/05/07 00:10:31;;;;;;;14.87;9.23;;;14.70;85.70;;;;;;4978565;28;20254;-70
2022/05/07 00:12:58;;;;;;;13.50;9.57;;;14.70;85.80;;;;;;4976005;28;20208;-71
2022/05/07 00:15:25;;;;;;;17.70;9.90;;;14.70;86.10;;;;;;4973222;28;20247;-72
2022/05/07 00:18:03;;;;;;;13.00;8.17;;;14.60;86.40;;;;;;4975788;28;20327;-72
2022/05/07 00:20:33;;;;;;;16.03;9.07;;;14.50;86.80;;;;;;4980753;28;20208;-71
2022/05/07 00:23:00;;;;;;;13.73;9.07;;;14.40;87.40;;;;;;4972955;28;20236;-71
2022/05/07 00:25:28;;;;;;;15.77;9.70;;;14.40;88.00;;;;;;4976061;28;20670;-72
2022/05/07 00:27:55;;;;;;;12.00;8.40;;;14.30;88.40;;;;;;4974970;28;20205;-72
2022/05/07 00:30:22;;;;;;;11.87;8.97;;;14.20;88.90;;;;;;4970932;28;20342;-71
2022/05/07 00:32:49;;;;;;;15.20;9.60;;;14.20;89.30;;;;;;4979818;28;20636;-71
2022/05/07 00:35:16;;;;;;;17.33;9.83;;;14.20;89.40;;;;;;4976265;28;20299;-72
2022/05/07 00:37:44;;;;;;;18.93;9.20;;;14.20;90.00;;;;;;4976343;28;20236;-73
2022/05/07 00:40:11;;;;;;;16.87;9.30;;;14.10;90.10;;;;;;4974795;28;20700;-72
2022/05/07 00:42:39;;;;;;;15.17;9.73;;;14.00;90.80;;;;;;4976095;28;20248;-72
2022/05/07 00:45:07;;;;;;;17.00;9.50;;;14.00;90.70;;;;;;4975461;28;20223;-72
2022/05/07 00:47:34;;;;;;;14.47;8.90;;;13.90;90.80;;;;;;4976639;28;20201;-70
2022/05/07 00:52:46;;;;;;;18.23;10.63;;;13.80;91.30;;;;;;4974652;28;20207;-71
2022/05/07 00:55:14;;;;;;;14.23;9.27;;;13.70;91.60;;;;;;4976431;28;20552;-68
2022/05/07 00:57:41;;;;;;;17.43;10.47;;;13.60;91.60;;;;;;4984006;28;20227;-71
2022/05/07 01:00:10;;;;;;;15.47;10.40;;;13.60;91.80;;;;;;4968474;28;20665;-69
2022/05/07 01:02:37;;;;;;;14.30;10.17;;;13.50;91.90;;;;;;4973836;28;20318;-67
2022/05/07 01:05:04;;;;;;;16.37;10.23;;;13.50;92.10;;;;;;4976692;28;20291;-68
2022/05/07 01:07:34;;;;;;;16.33;10.80;;;13.50;92.30;;;;;;4976154;28;20213;-68
2022/05/07 01:10:04;;;;;;;13.80;9.87;;;13.50;92.50;;;;;;4976201;28;20201;-68
2022/05/07 01:12:31;;;;;;;16.20;10.13;;;13.50;92.60;;;;;;4976066;28;20216;-68
2022/05/07 01:14:58;;;;;;;11.47;9.90;;;13.50;92.80;;;;;;4974739;28;20244;-68
2022/05/07 01:17:25;;;;;;;15.73;10.23;;;13.40;92.90;;;;;;4972927;28;21375;-69
2022/05/07 01:19:53;;;;;;;17.57;11.10;;;13.40;93.00;;;;;;4966821;28;20207;-68
2022/05/07 01:22:22;;;;;;;17.93;11.27;;;13.40;93.10;;;;;;4974271;28;20299;-68
2022/05/07 01:24:49;;;;;;;21.13;11.30;;;13.40;93.10;;;;;;4976067;28;20205;-68
2022/05/07 01:27:16;;;;;;;16.97;11.50;;;13.40;93.30;;;;;;4974244;28;20240;-68
2022/05/07 01:29:43;;;;;;;16.13;10.13;;;13.40;93.30;;;;;;4975131;28;20279;-68
2022/05/07 01:32:10;;;;;;;18.47;12.00;;;13.40;93.50;;;;;;4972264;28;20355;-68
2022/05/07 01:34:37;;;;;;;16.23;12.07;;;13.40;93.70;;;;;;4971430;28;20265;-68
2022/05/07 01:37:04;;;;;;;13.90;10.50;;;13.40;93.70;;;;;;4973992;28;20227;-69
2022/05/07 01:39:32;;;;;;;20.70;12.20;;;13.40;93.70;;;;;;4973913;28;20220;-69
2022/05/07 01:41:59;;;;;;;12.67;10.17;;;13.40;93.70;;;;;;4973264;28;20654;-68
2022/05/07 01:44:26;;;;;;;15.63;10.13;;;13.40;93.80;;;;;;4967635;28;20200;-68
2022/05/07 01:49:37;;;;;;;15.83;10.43;;;13.50;94.20;;;;;;4975554;28;20243;-69
2022/05/07 01:52:05;;;;;;;15.90;11.13;;;13.50;94.30;;;;;;4972586;28;20300;-68
2022/05/07 01:54:33;;;;;;;14.80;10.37;;;13.50;94.40;;;;;;4972782;28;20287;-68
2022/05/07 01:57:00;;;;;;;16.50;10.63;;;13.60;94.50;;;;;;4975199;28;20686;-69
2022/05/07 01:59:26;;;;;;;15.57;9.80;;;13.60;94.60;;;;;;4978342;28;20705;-68
2022/05/07 02:01:53;;;;;;;15.73;10.93;;;13.60;94.70;;;;;;4978382;28;20252;-68
2022/05/07 02:04:20;;;;;;;15.03;10.43;;;13.60;94.80;;;;;;4977513;28;20280;-68
2022/05/07 02:06:47;;;;;;;20.57;11.20;;;13.60;94.80;;;;;;4979587;28;20252;-69
2022/05/07 02:09:15;;;;;;;17.93;11.07;;;13.60;94.90;;;;;;4979583;28;20217;-68
2022/05/07 02:11:43;;;;;;;15.37;11.03;;;13.60;95.20;;;;;;4981594;28;20299;-69
2022/05/07 02:14:10;;;;;;;16.57;11.53;;;13.60;95.80;;;;;;4977212;28;20251;-67
2022/05/07 02:16:36;;;;;;;20.90;11.63;;;13.60;95.70;;;;;;4979431;28;20247;-68
2022/05/07 02:19:03;;;;;;;17.13;11.30;;;13.70;95.80;;;;;;4978505;28;20259;-68
2022/05/07 02:21:30;;;;;;;17.57;11.30;;;13.60;95.90;;;;;;4976885;28;20679;-68
2022/05/07 02:23:57;;;;;;;17.77;10.67;;;13.60;96.00;;;;;;4978328;28;20219;-67
2022/05/07 02:26:24;;;;;;;16.67;10.47;;;13.60;96.20;;;;;;4980547;28;20295;-68
2022/05/07 02:28:52;;;;;;;22.30;11.00;;;13.70;96.40;;;;;;4978387;28;20323;-67
2022/05/07 02:31:19;;;;;;;17.50;10.20;;;13.60;96.80;;;;;;4977566;28;20273;-68
2022/05/07 02:33:46;;;;;;;16.40;10.27;;;13.70;96.60;;;;;;4977980;28;20236;-67
2022/05/07 02:36:13;;;;;;;16.10;11.10;;;13.70;96.70;;;;;;4977980;28;20216;-67
2022/05/07 02:38:40;;;;;;;16.20;11.47;;;13.70;96.80;;;;;;4973125;28;20239;-68
2022/05/07 02:43:53;;;;;;;14.83;10.63;;;13.60;97.00;;;;;;4966813;28;20788;-67
2022/05/07 02:46:20;;;;;;;15.97;11.90;;;13.50;97.40;;;;;;4977576;28;20654;-67
2022/05/07 02:48:47;;;;;;;20.33;12.00;;;13.50;97.40;;;;;;4978988;28;20212;-67
2022/05/07 02:51:14;;;;;;;20.20;13.00;;;13.40;97.60;;;;;;4978244;28;20675;-68
2022/05/07 02:53:41;;;;;;;15.93;11.27;;;13.30;97.80;;;;;;4978187;28;20617;-68
2022/05/07 02:56:08;;;;;;;15.10;12.13;;;13.40;98.00;;;;;;4979162;28;20208;-68
2022/05/07 02:58:35;;;;;;;16.40;11.53;;;13.40;98.20;;;;;;4977505;28;20228;-68
2022/05/07 03:01:03;;;;;;;16.27;12.00;;;13.30;98.30;;;;;;4977123;28;20240;-67
2022/05/07 03:03:30;;;;;;;19.13;12.10;;;13.30;98.50;;;;;;4977218;28;20240;-68
2022/05/07 03:05:59;;;;;;;20.37;13.83;;;13.30;98.70;;;;;;4978628;28;20205;-68
2022/05/07 03:08:26;;;;;;;16.83;11.57;;;13.20;98.90;;;;;;4977814;28;20224;-67
2022/05/07 03:10:53;;;;;;;15.90;11.80;;;13.20;99.00;;;;;;4976961;28;20205;-68
2022/05/07 03:13:20;;;;;;;20.23;11.13;;;13.20;99.20;;;;;;4976864;28;20304;-67
2022/05/07 03:15:47;;;;;;;15.03;10.83;;;13.20;99.40;;;;;;4976728;28;20211;-67
2022/05/07 03:18:15;;;;;;;15.10;11.87;;;13.20;99.60;;;;;;4976872;28;20267;-68
2022/05/07 03:20:42;;;;;;;18.20;11.40;;;13.20;99.90;;;;;;4977920;28;20209;-68
2022/05/07 03:23:09;;;;;;;18.83;12.17;;;13.20;99.90;;;;;;4977747;28;20236;-67
2022/05/07 03:25:36;;;;;;;18.77;12.67;;;13.20;99.90;;;;;;4978020;28;20255;-68
2022/05/07 03:28:03;;;;;;;17.33;11.83;;;13.20;99.90;;;;;;4976991;28;20213;-68
2022/05/07 03:30:30;;;;;;;16.90;12.30;;;13.20;99.90;;;;;;4977093;28;20204;-67
2022/05/07 03:32:56;;;;;;;21.83;12.37;;;13.20;99.90;;;;;;4974237;28;20280;-68
2022/05/07 03:35:25;;;;;;;16.33;13.00;;;13.20;99.90;;;;;;4976529;28;20212;-68
2022/05/07 03:37:51;;;;;;;18.07;12.30;;;13.20;99.90;;;;;;4976644;28;20268;-66
2022/05/07 03:40:18;;;;;;;18.67;12.77;;;13.30;99.90;;;;;;4975343;28;20209;-68
2022/05/07 03:42:45;;;;;;;15.93;12.10;;;13.30;99.90;;;;;;4977231;28;20765;-67
2022/05/07 03:45:12;;;;;;;21.33;13.70;;;13.30;99.90;;;;;;4976673;28;20611;-68
2022/05/07 03:47:39;;;;;;;17.37;12.83;;;13.30;99.90;;;;;;4976859;28;20208;-68
2022/05/07 03:50:08;;;;;;;22.63;13.00;;;13.40;99.90;;;;;;4976641;28;20212;-68
2022/05/07 03:55:20;;;;;;;21.80;14.53;;;13.40;99.90;;;;;;4976748;28;20211;-67
2022/05/07 03:57:47;;;;;;;21.83;14.73;;;13.40;99.90;;;;;;4976818;28;20712;-68
2022/05/07 04:00:14;;;;;;;20.60;13.83;;;13.40;99.90;;;;;;4976013;28;20571;-69
2022/05/07 04:02:41;;;;;;;23.67;15.13;;;13.30;99.90;;;;;;4972913;28;20219;-69
2022/05/07 04:05:09;;;;;;;19.00;14.80;;;13.40;99.90;;;;;;4976631;28;20209;-67
2022/05/07 04:07:37;;;;;;;24.57;15.10;;;13.40;99.90;;;;;;4990462;28;20271;-67
2022/05/07 04:10:06;;;;;;;20.37;16.00;;;13.30;99.90;;;;;;4976119;28;20240;-68
2022/05/07 04:12:33;;;;;;;22.63;15.60;;;13.30;99.90;;;;;;4975634;28;20581;-67
2022/05/07 04:15:00;;;;;;;20.77;14.97;;;13.30;99.90;;;;;;4976662;28;20295;-67
2022/05/07 04:17:27;;;;;;;20.20;15.67;;;13.40;99.90;;;;;;4975445;28;20208;-68
2022/05/07 04:19:54;;;;;;;23.17;15.80;;;13.40;99.90;;;;;;4975165;28;20209;-68
2022/05/07 04:22:21;;;;;;;20.70;15.67;;;13.40;99.90;;;;;;4975331;28;20299;-68
2022/05/07 04:24:49;;;;;;;21.87;15.07;;;13.40;99.90;;;;;;4976002;28;20299;-68
2022/05/07 04:27:16;;;;;;;24.00;16.90;;;13.40;99.90;;;;;;4974538;28;20215;-67
2022/05/07 04:29:43;;;;;;;23.30;14.47;;;13.50;99.90;;;;;;4975383;28;20635;-68
2022/05/07 04:32:10;;;;;;;23.60;15.83;;;13.50;99.90;;;;;;4974010;28;20288;-68
2022/05/07 04:34:37;;;;;;;23.10;14.47;;;13.50;99.90;;;;;;4975099;28;20216;-69
2022/05/07 04:37:04;;;;;;;21.03;15.40;;;13.60;99.90;;;;;;4975929;28;20268;-68
2022/05/07 04:39:34;;;;;;;19.27;14.33;;;13.70;99.90;;;;;;4976054;28;20299;-67
2022/05/07 04:42:02;;;;;;;19.80;15.07;;;13.80;99.90;;;;;;4974934;28;20209;-67
2022/05/07 04:44:29;;;;;;;21.70;14.37;;;13.80;99.90;;;;;;4975551;28;20217;-68
2022/05/07 04:46:57;;;;;;;20.07;14.67;;;13.90;99.90;;;;;;4967585;28;20295;-68
2022/05/07 04:49:24;;;;;;;21.60;15.10;;;13.90;99.90;;;;;;4964987;28;20288;-67
2022/05/07 04:51:51;;;;;;;22.07;14.67;;;14.00;99.90;;;;;;4971252;28;20669;-67
2022/05/07 04:54:20;;;;;;;16.90;13.67;;;14.00;99.90;;;;;;4975718;28;20216;-68
2022/05/07 04:56:47;;;;;;;20.07;12.93;;;14.10;99.90;;;;;;4975828;28;20659;-69
2022/05/07 04:59:15;;;;;;;16.60;13.80;;;14.20;99.90;;;;;;4976029;28;20220;-68
2022/05/07 05:01:43;;;;;;;20.20;14.77;;;14.30;99.90;;;;;;4971697;28;20228;-69
2022/05/07 05:04:10;;;;;;;18.10;13.50;;;14.30;99.90;;;;;;4975399;28;20215;-68
2022/05/07 05:06:37;;;;;;;20.47;13.20;;;14.40;99.90;;;;;;4976411;28;20299;-68
2022/05/07 05:09:05;;;;;;;21.53;14.27;;;14.40;99.70;;;;;;4975278;28;20569;-68
2022/05/07 05:11:32;;;;;;;19.30;13.30;;;14.50;99.60;;;;;;4984683;28;20294;-68
2022/05/07 05:13:59;;;;;;;18.63;13.57;;;14.60;99.20;;;;;;4975122;28;20223;-68
2022/05/07 05:16:28;;;;;;;17.97;12.40;;;14.60;99.00;;;;;;4972358;28;20227;-67
2022/05/07 05:18:55;;;;;;;16.60;12.57;;;14.70;98.90;;;;;;4974672;28;20281;-68
2022/05/07 05:21:22;;;;;;;22.67;13.30;;;14.80;98.60;;;;;;4974485;28;20692;-67
2022/05/07 05:23:49;;;;;;;16.53;12.30;;;14.90;98.40;;;;;;4975577;28;20277;-67
2022/05/07 05:26:16;;;;;;;17.73;11.90;;;15.00;98.20;;;;;;4974349;28;20223;-68
2022/05/07 05:28:45;;;;;;;20.20;12.63;;;15.10;98.00;;;;;;4966687;28;20232;-69
2022/05/07 05:31:12;;;;;;;18.30;12.30;;;15.10;97.70;;;;;;4976233;28;20323;-69
2022/05/07 05:33:40;;;;;;;16.30;12.00;;;15.20;97.50;;;;;;4978282;28;20279;-68
2022/05/07 05:36:07;;;;;;;15.77;11.13;;;15.20;97.30;;;;;;4975475;28;20300;-68
2022/05/07 05:38:34;;;;;;;15.70;11.30;;;15.20;97.10;;;;;;4970664;28;20237;-68
2022/05/07 05:41:01;;;;;;;18.07;11.40;;;15.30;97.00;;;;;;4976232;28;20295;-69
2022/05/07 05:43:28;;;;;;;14.80;11.80;;;15.40;96.90;;;;;;4978672;28;20205;-68
2022/05/07 05:45:55;;;;;;;15.57;11.40;;;15.40;96.80;;;;;;4978859;28;20691;-69
2022/05/07 05:48:24;;;;;;;14.80;11.40;;;15.50;96.80;;;;;;4961457;28;20233;-68
2022/05/07 05:50:52;;;;;;;16.37;12.63;;;15.60;97.00;;;;;;4970356;28;20714;-68
2022/05/07 05:53:19;;;;;;;16.23;12.67;;;15.60;96.50;;;;;;4969905;28;20209;-69
2022/05/07 05:55:46;;;;;;;18.07;12.77;;;15.60;96.40;;;;;;4968909;28;20209;-69
2022/05/07 05:58:13;;;;;;;17.33;13.57;;;15.70;96.40;;;;;;4971242;28;20212;-68
2022/05/07 06:00:40;;;;;;;18.07;12.77;;;15.80;96.50;;;;;;4975101;28;20209;-67
2022/05/07 06:03:07;;;;;;;15.80;12.57;;;15.70;96.60;;;;;;4977096;28;20243;-65
2022/05/07 06:05:34;;;;;;;16.43;12.20;;;15.80;96.70;;;;;;4977123;28;20942;-65
2022/05/07 06:08:02;;;;;;;15.30;11.53;;;15.80;96.70;;;;;;4976413;28;20291;-66
2022/05/07 06:10:29;;;;;;;12.43;10.10;;;15.90;96.60;;;;;;4976588;28;20235;-66
2022/05/07 06:12:55;;;;;;;12.95;9.93;;;16.00;96.30;;;;;;4970230;28;20215;-66
2022/05/07 06:15:22;;;;;;;13.90;9.53;;;16.10;96.00;;;;;;4965383;28;20292;-66
2022/05/07 06:17:49;;;;;;;12.83;7.90;;;16.20;95.40;;;;;;4973370;28;20250;-67
2022/05/07 06:20:16;;;;;;;12.57;8.03;;;16.30;94.80;;;;;;4975964;28;20240;-67
2022/05/07 06:22:43;;;;;;;10.48;7.75;;;16.40;94.40;;;;;;4979809;28;20661;-66
2022/05/07 06:27:56;;;;;;;10.27;8.15;;;16.60;94.10;;;;;;4972320;28;20203;-65
2022/05/07 06:30:23;;;;;;;12.88;7.93;;;16.70;93.70;;;;;;4975901;28;20268;-65
2022/05/07 06:32:50;;;;;;;9.45;8.07;;;16.80;93.60;;;;;;4976186;28;20208;-66
2022/05/07 06:35:17;;;;;;;9.00;7.07;;;16.80;93.40;;;;;;4975714;28;20215;-66
2022/05/07 06:37:48;;;;;;;10.77;6.13;;;16.90;93.40;;;;;;4975374;28;20209;-66
2022/05/07 06:40:16;;;;;;;6.40;5.63;;;17.00;93.10;;;;;;4972827;28;20217;-66
2022/05/07 06:42:44;;;;;;;7.07;5.15;;;17.10;92.80;;;;;;4970653;28;20239;-66
2022/05/07 06:45:12;;;;;;;6.20;4.05;;;17.10;92.30;;;;;;4971581;28;20209;-65
2022/05/07 06:47:39;;;;;;;5.50;4.43;;;17.20;91.60;;;;;;4972811;28;20212;-66
2022/05/07 06:50:07;;;;;;;5.75;3.92;;;17.20;91.10;;;;;;4970517;28;20216;-67
2022/05/07 06:52:42;;;;;;;6.50;4.30;;;17.30;91.10;;;;;;4974958;28;20239;-67
2022/05/07 06:55:12;;;;;;;4.68;3.70;;;17.40;90.70;;;;;;4979633;28;20739;-65
2022/05/07 06:57:40;;;;;;;4.22;3.47;;;17.50;90.30;;;;;;4974930;28;20208;-65
2022/05/07 07:00:08;;;;;;;7.05;4.00;;;17.60;90.10;;;;;;4975015;28;20252;-63
2022/05/07 07:02:35;;;;;;;5.57;3.60;;;17.70;89.60;;;;;;4976038;28;20701;-66
2022/05/07 07:05:02;;;;;;;3.95;3.55;;;17.70;88.70;;;;;;4971455;28;20276;-66
2022/05/07 07:07:29;;;;;;;3.70;3.10;;;17.80;88.10;;;;;;4986387;28;20211;-66
2022/05/07 07:09:56;;;;;;;6.00;3.28;;;17.90;87.70;;;;;;4976125;28;20564;-65
2022/05/07 07:12:23;;;;;;;7.93;3.60;;;17.90;87.10;;;;;;4975665;28;20205;-63
2022/05/07 07:14:52;;;;;;;5.07;3.47;;;17.90;86.50;;;;;;4977334;28;20209;-68
2022/05/07 07:17:19;;;;;;;3.92;3.35;;;18.00;86.50;;;;;;4978838;28;20220;-67
2022/05/07 07:19:46;;;;;;;4.88;3.55;;;18.10;86.10;;;;;;4974824;28;20643;-66
2022/05/07 07:22:14;;;;;;;5.95;4.35;;;18.20;85.20;;;;;;4976225;28;20235;-67
2022/05/07 07:24:41;;;;;;;5.90;4.32;;;18.30;84.40;;;;;;4975357;28;20211;-64
2022/05/07 07:27:08;;;;;;;6.57;3.95;;;18.30;84.10;;;;;;4974485;28;20216;-67
2022/05/07 07:29:36;;;;;;;5.68;3.47;;;18.40;84.50;;;;;;4975054;28;20239;-65
2022/05/07 07:32:05;;;;;;;8.32;3.60;;;18.50;83.70;;;;;;4981626;28;20592;-63
2022/05/07 07:34:31;;;;;;;5.55;3.20;;;18.60;83.80;;;;;;4972615;28;20367;-66
2022/05/07 07:36:58;;;;;;;4.80;3.03;;;18.70;83.40;;;;;;4970006;28;20578;-65
2022/05/07 07:39:25;;;;;;;7.82;3.00;;;18.80;82.80;;;;;;4970050;28;20671;-67
2022/05/07 07:41:52;;;;;;;4.68;3.08;;;19.00;82.40;;;;;;4974544;28;20239;-65
2022/05/07 07:44:19;;;;;;;6.15;4.07;;;19.20;81.80;;;;;;4976353;28;20707;-66
2022/05/07 07:49:32;;;;;;;3.85;2.80;;;19.30;80.20;;;;;;4974190;28;20243;-64
2022/05/07 07:51:59;;;;;;;4.22;2.80;;;19.30;79.40;;;;;;4975802;28;20732;-64
2022/05/07 07:54:26;;;;;;;3.53;2.67;;;19.30;78.50;;;;;;4974986;28;20819;-65
2022/05/07 07:56:52;;;;;;;3.92;2.80;;;19.40;78.30;;;;;;4974141;28;20300;-66
2022/05/07 07:59:19;;;;;;;3.13;2.33;;;19.40;77.50;;;;;;4972944;28;20315;-66
2022/05/07 08:01:46;;;;;;;3.08;2.70;;;19.30;76.70;;;;;;4975121;28;20307;-65
2022/05/07 08:04:13;;;;;;;3.28;2.42;;;19.40;76.10;;;;;;4974517;28;20272;-66
2022/05/07 08:06:41;;;;;;;2.30;2.10;;;19.40;75.40;;;;;;4971520;28;20547;-65
2022/05/07 08:11:55;;;;;;;2.95;2.05;;;19.40;74.30;;;;;;4972199;28;20260;-65
2022/05/07 08:14:22;;;;;;;4.65;2.03;;;19.50;73.80;;;;;;4970203;28;20208;-65
2022/05/07 08:16:49;;;;;;;2.35;2.00;;;19.60;73.70;;;;;;4977942;28;20212;-66
2022/05/07 08:19:16;;;;;;;2.60;2.25;;;19.70;73.60;;;;;;4973624;28;20315;-65
2022/05/07 08:21:45;;;;;;;3.08;2.40;;;19.80;73.90;;;;;;4975120;28;20209;-66
2022/05/07 08:24:11;;;;;;;2.22;1.75;;;20.00;73.60;;;;;;4973993;28;20222;-65
2022/05/07 08:26:38;;;;;;;2.92;2.55;;;20.20;72.80;;;;;;4967698;28;20209;-64
2022/05/07 08:29:05;;;;;;;1.55;1.45;;;20.20;71.10;;;;;;4973727;28;20688;-64
2022/05/07 08:31:32;;;;;;;1.55;1.45;;;20.20;70.10;;;;;;4973813;28;20239;-65
2022/05/07 08:33:59;;;;;;;2.53;1.85;;;20.20;69.70;;;;;;4970043;28;20275;-64
2022/05/07 08:36:26;;;;;;;2.92;2.00;;;20.20;69.60;;;;;;4974645;28;20277;-66
2022/05/07 08:38:54;;;;;;;2.75;1.80;;;20.30;69.60;;;;;;4974043;28;20294;-65
2022/05/07 08:41:22;;;;;;;2.10;1.30;;;20.40;70.00;;;;;;4974029;28;20239;-65
2022/05/07 08:43:50;;;;;;;1.92;1.48;;;20.70;69.60;;;;;;4974622;28;20217;-65
2022/05/07 08:46:18;;;;;;;18.40;5.03;;;20.80;68.30;;;;;;4974842;28;20240;-64
2022/05/07 08:48:47;;;;;;;4.13;1.70;;;20.90;67.80;;;;;;4970810;28;20209;-65
2022/05/07 08:51:15;;;;;;;1.50;1.13;;;21.00;66.60;;;;;;4973012;28;20271;-64
2022/05/07 08:53:43;;;;;;;3.63;1.70;;;21.00;65.70;;;;;;4971137;28;20205;-64
2022/05/07 08:56:12;;;;;;;4.68;1.75;;;21.00;65.50;;;;;;4974429;28;20592;-65
2022/05/07 08:58:39;;;;;;;1.50;1.40;;;21.10;65.90;;;;;;4968209;28;20303;-66
2022/05/07 09:01:06;;;;;;;1.67;1.17;;;21.20;65.50;;;;;;4979372;28;20239;-65
2022/05/07 09:03:40;;;;;;;2.15;1.50;;;21.30;64.90;;;;;;4970699;28;20299;-64
2022/05/07 09:06:31;;;;;;;2.25;1.20;;;21.60;65.10;;;;;;4975318;28;20226;-65
2022/05/07 09:08:58;;;;;;;1.52;1.42;;;21.80;64.30;;;;;;4968668;28;20239;-64
2022/05/07 09:11:26;;;;;;;1.70;1.17;;;21.90;63.70;;;;;;4971552;28;20299;-64
2022/05/07 09:14:04;;;;;;;1.75;1.00;;;21.90;63.10;;;;;;4975996;28;20204;-64
2022/05/07 09:16:39;;;;;;;1.20;1.10;;;22.00;62.60;;;;;;4966014;28;20240;-64
2022/05/07 09:19:07;;;;;;;0.98;0.90;;;22.10;61.50;;;;;;4973415;28;20668;-65
2022/05/07 09:21:34;;;;;;;0.80;0.80;;;22.20;60.80;;;;;;4969425;28;20249;-67
2022/05/07 09:24:06;;;;;;;1.00;0.82;;;22.30;60.50;;;;;;4973728;28;20660;-64
2022/05/07 09:26:37;;;;;;;1.00;1.00;;;22.40;59.80;;;;;;4970216;28;20220;-64
2022/05/07 09:29:08;;;;;;;2.40;0.90;;;22.30;58.80;;;;;;4972239;28;20248;-68
2022/05/07 09:31:36;;;;;;;1.15;0.90;;;22.40;58.90;;;;;;4972183;28;20710;-64
2022/05/07 09:36:56;;;;;;;1.60;0.90;;;22.40;59.10;;;;;;4969941;28;20239;-67
2022/05/07 09:39:23;;;;;;;1.15;0.80;;;22.60;59.00;;;;;;4973221;28;20295;-67
2022/05/07 09:41:55;;;;;;;2.20;0.70;;;22.80;58.10;;;;;;4970243;28;20291;-65
2022/05/07 09:44:24;;;;;;;0.90;0.90;;;22.90;58.10;;;;;;4969553;28;20204;-66
2022/05/07 09:46:51;;;;;;;0.70;0.70;;;23.10;57.70;;;;;;4975430;28;20204;-65
2022/05/07 09:49:19;;;;;;;1.38;0.60;;;23.20;58.00;;;;;;4973332;28;20292;-67
2022/05/07 09:51:47;;;;;;;1.52;0.70;;;23.30;57.40;;;;;;4961693;28;20588;-66
2022/05/07 09:59:45;;;;;;;1.95;0.70;;;23.70;55.60;;;;;;4966879;28;20220;-66
2022/05/07 10:02:24;;;;;;;1.52;0.60;;;23.70;55.60;;;;;;4965466;28;20196;-68
2022/05/07 10:05:10;;;;;;;1.75;0.60;;;23.50;55.40;;;;;;4971925;28;20272;-66
2022/05/07 10:07:47;;;;;;;0.77;0.77;;;23.60;55.50;;;;;;4929604;28;20219;-67
2022/05/07 10:10:25;;;;;;;2.55;0.60;;;23.50;55.30;;;;;;4973269;28;20200;-68
2022/05/07 10:12:56;;;;;;;1.05;0.90;;;23.50;54.90;;;;;;4970430;28;20575;-68
2022/05/07 10:15:25;;;;;;;0.82;0.82;;;23.30;56.00;;;;;;4972268;28;20201;-64
2022/05/07 10:17:59;;;;;;;8.30;1.40;;;23.30;55.70;;;;;;4971861;28;20208;-64
2022/05/07 10:20:33;;;;;;;48.40;5.18;;;23.40;56.30;;;;;;4976565;28;20711;-66
2022/05/07 10:23:01;;;;;;;73.82;6.70;;;23.70;56.40;;;;;;4976317;28;20201;-65
2022/05/07 10:25:28;;;;;;;24.33;2.47;;;24.00;56.00;;;;;;4975565;28;20243;-66
2022/05/07 10:28:07;;;;;;;1.10;0.98;;;24.40;55.80;;;;;;4976796;28;20677;-66
2022/05/07 10:30:46;;;;;;;2.17;1.17;;;24.70;55.00;;;;;;4974822;28;20203;-65
2022/05/07 10:33:13;;;;;;;2.45;0.88;;;24.90;53.90;;;;;;4974924;28;20208;-65
2022/05/07 10:35:44;;;;;;;4.53;0.95;;;25.00;54.00;;;;;;4976933;28;20672;-66
2022/05/07 10:38:13;;;;;;;1.70;0.80;;;25.10;53.00;;;;;;4976425;28;20247;-66
2022/05/07 10:40:50;;;;;;;1.33;0.90;;;25.10;52.80;;;;;;4976798;28;20611;-66
2022/05/07 10:43:27;;;;;;;1.83;0.90;;;25.00;52.60;;;;;;4977040;28;20577;-66
2022/05/07 10:46:00;;;;;;;4.07;1.10;;;24.90;53.10;;;;;;4975833;28;20243;-65
2022/05/07 10:48:27;;;;;;;2.50;0.80;;;24.70;53.90;;;;;;4977115;28;20299;-67
2022/05/07 10:50:55;;;;;;;0.93;0.88;;;24.80;54.10;;;;;;4976457;28;20244;-66
2022/05/07 10:53:23;;;;;;;2.80;0.82;;;24.90;53.90;;;;;;4977692;28;20208;-66
2022/05/07 10:55:53;;;;;;;5.43;1.17;;;25.00;53.50;;;;;;4987065;28;20218;-66
2022/05/07 10:58:33;;;;;;;8.40;1.38;;;25.10;54.20;;;;;;4976538;28;20205;-65
2022/05/07 11:01:00;;;;;;;4.95;1.25;;;25.20;54.80;;;;;;4974407;28;20228;-66
2022/05/07 11:03:28;;;;;;;167.25;15.60;;;25.20;54.10;;;;;;4978462;28;20236;-76
2022/05/07 11:06:02;;;;;;;36.95;3.47;;;25.20;53.80;;;;;;4981137;28;20215;-69
2022/05/07 11:08:30;;;;;;;50.83;6.25;;;25.30;54.90;;;;;;4980896;28;20209;-68
2022/05/07 11:11:09;;;;;;;27.52;2.78;;;25.60;53.60;;;;;;4981044;28;20228;-68
2022/05/07 11:13:47;;;;;;;3.47;1.20;;;25.90;53.20;;;;;;4980121;28;20243;-68
2022/05/07 11:16:16;;;;;;;5.43;1.30;;;26.10;52.70;;;;;;4977685;28;20200;-68
2022/05/07 11:18:45;;;;;;;1.58;1.00;;;26.40;52.60;;;;;;4977616;28;20208;-70
2022/05/07 11:21:13;;;;;;;0.93;0.80;;;26.60;51.60;;;;;;4979043;28;20217;-70
2022/05/07 11:23:42;;;;;;;1.52;1.10;;;26.90;50.60;;;;;;4980657;28;20271;-68
2022/05/07 11:26:13;;;;;;;1.85;0.85;;;27.00;49.80;;;;;;4973046;28;20216;-71
2022/05/07 11:28:43;;;;;;;3.47;1.08;;;27.30;49.00;;;;;;4977816;28;20252;-69
2022/05/07 11:31:12;;;;;;;1.40;1.23;;;27.30;48.80;;;;;;4978720;28;20200;-69
2022/05/07 11:33:39;;;;;;;2.35;1.10;;;27.20;49.10;;;;;;4976596;28;20231;-69
2022/05/07 11:36:08;;;;;;;3.00;1.23;;;27.10;49.20;;;;;;4978624;28;20239;-69
2022/05/07 11:38:36;;;;;;;9.30;1.85;;;27.10;49.30;;;;;;4978615;28;20216;-68
2022/05/07 11:41:14;;;;;;;2.60;1.20;;;27.00;49.80;;;;;;4978494;28;20249;-69
2022/05/07 11:46:27;;;;;;;0.80;0.80;;;27.10;50.60;;;;;;4983759;28;20634;-69
2022/05/07 11:48:53;;;;;;;2.10;1.10;;;27.10;50.20;;;;;;4978325;28;20256;-70
2022/05/07 11:51:25;;;;;;;4.07;1.05;;;27.10;53.30;;;;;;4977551;28;20197;-69
2022/05/07 11:53:52;;;;;;;2.60;1.10;;;27.20;51.40;;;;;;4976395;28;20200;-70
2022/05/07 11:56:19;;;;;;;1.10;1.00;;;27.20;50.70;;;;;;4975765;28;20586;-69
2022/05/07 11:58:49;;;;;;;4.90;1.55;;;27.20;50.20;;;;;;4976715;28;20228;-70
2022/05/07 12:01:20;;;;;;;2.80;1.30;;;27.10;50.00;;;;;;4976048;28;20662;-69
2022/05/07 12:03:49;;;;;;;1.85;1.10;;;27.10;50.10;;;;;;4979416;28;20236;-69
2022/05/07 12:06:26;;;;;;;3.20;1.30;;;26.90;50.50;;;;;;4977079;28;20209;-68
2022/05/07 12:08:53;;;;;;;1.98;1.00;;;26.60;50.50;;;;;;4975685;28;20622;-70
2022/05/07 12:11:21;;;;;;;2.97;1.20;;;26.50;50.90;;;;;;4976351;28;20577;-69
2022/05/07 12:13:48;;;;;;;3.25;1.20;;;26.50;50.50;;;;;;4976344;28;20304;-69
2022/05/07 12:19:02;;;;;;;5.93;1.33;;;26.30;50.30;;;;;;4971157;28;20358;-69
2022/05/07 12:29:50;;;;;;;2.38;1.15;;;26.00;52.70;;;;;;4973552;28;20240;-67
2022/05/07 12:32:18;;;;;;;2.55;0.85;;;26.10;51.30;;;;;;4964206;28;20213;-67
2022/05/07 12:34:46;;;;;;;4.05;1.20;;;26.10;50.70;;;;;;4971460;28;20212;-67
2022/05/07 12:37:13;;;;;;;2.70;1.10;;;26.10;50.30;;;;;;4968902;28;20204;-67
2022/05/07 12:39:41;;;;;;;1.55;1.30;;;26.20;50.20;;;;;;4973202;28;20300;-67
2022/05/07 12:42:10;;;;;;;2.95;1.15;;;26.10;50.10;;;;;;4971429;28;20224;-67
2022/05/07 12:44:37;;;;;;;0.90;0.90;;;26.10;50.30;;;;;;4976038;28;20248;-69
2022/05/07 12:47:06;;;;;;;5.15;1.10;;;25.90;50.60;;;;;;4975731;28;20276;-68
2022/05/07 12:49:33;;;;;;;2.95;1.23;;;25.60;50.40;;;;;;4975309;28;20216;-69
2022/05/07 12:52:03;;;;;;;3.03;0.90;;;25.40;50.90;;;;;;4974904;28;20240;-68
2022/05/07 12:54:30;;;;;;;1.95;0.90;;;25.20;51.30;;;;;;4974718;28;20562;-69
2022/05/07 12:56:58;;;;;;;2.50;0.80;;;25.20;51.30;;;;;;4978715;28;20200;-68
2022/05/07 12:59:25;;;;;;;1.63;1.00;;;25.30;50.80;;;;;;4974223;28;20213;-69
2022/05/07 13:01:52;;;;;;;3.00;1.00;;;25.40;50.60;;;;;;4985540;28;20306;-69
2022/05/07 13:04:22;;;;;;;3.90;1.10;;;25.50;50.80;;;;;;4974738;28;20267;-68
2022/05/07 13:06:49;;;;;;;2.40;1.40;;;25.60;50.50;;;;;;4977039;28;20216;-68
2022/05/07 13:09:17;;;;;;;3.00;1.10;;;25.80;50.50;;;;;;4988507;28;20205;-68
2022/05/07 13:11:44;;;;;;;1.77;1.00;;;25.90;50.50;;;;;;4974978;28;20236;-68
2022/05/07 13:14:12;;;;;;;1.25;0.70;;;25.80;50.50;;;;;;4974653;28;20273;-69
2022/05/07 13:16:39;;;;;;;2.35;1.10;;;25.80;50.40;;;;;;4974104;28;20216;-69
2022/05/07 13:19:06;;;;;;;4.07;1.45;;;25.70;50.30;;;;;;4972832;28;20704;-68
2022/05/07 13:21:33;;;;;;;1.27;1.02;;;25.70;50.30;;;;;;4970223;28;20260;-69
2022/05/07 13:24:00;;;;;;;1.63;1.20;;;25.80;51.10;;;;;;4973570;28;20204;-69